createdAt,value
2023-04-15T00:01:06.625Z,24.65
2023-04-15T00:03:34.985Z,24.56
2023-04-15T00:06:02.526Z,24.86
2023-04-15T00:08:30.362Z,24.66
2023-04-15T00:10:59.534Z,24.56
2023-04-15T00:13:26.524Z,24.76
2023-04-15T00:15:53.378Z,24.65
2023-04-15T00:18:20.549Z,24.86
2023-04-15T00:20:47.869Z,25.14
2023-04-15T00:23:14.801Z,25.04
2023-04-15T00:25:41.837Z,24.77
2023-04-15T00:28:08.878Z,24.78
2023-04-15T00:30:35.924Z,25.10
2023-04-15T00:33:03.876Z,24.70
2023-04-15T00:35:32.883Z,25.08
2023-04-15T00:38:00.012Z,25.14
2023-04-15T00:40:28.007Z,25.14
2023-04-15T00:42:55.288Z,25.30
2023-04-15T00:45:22.580Z,24.76
2023-04-15T00:47:50.233Z,25.84
2023-04-15T00:50:17.384Z,25.17
2023-04-15T00:52:44.431Z,25.26
2023-04-15T00:55:11.445Z,25.87
2023-04-15T00:57:39.959Z,25.56
2023-04-15T01:00:09.060Z,25.60
2023-04-15T01:02:37.108Z,25.58
2023-04-15T01:05:04.903Z,26.03
2023-04-15T01:07:32.258Z,25.99
2023-04-15T01:09:59.745Z,26.04
2023-04-15T01:12:27.679Z,26.00
2023-04-15T01:14:56.285Z,26.02
2023-04-15T01:17:24.836Z,26.11
2023-04-15T01:19:52.922Z,26.20
2023-04-15T01:22:19.868Z,26.63
2023-04-15T01:24:57.599Z,26.02
2023-04-15T01:27:24.987Z,26.09
2023-04-15T01:29:52.079Z,26.91
2023-04-15T01:32:19.456Z,26.57
2023-04-15T01:35:05.194Z,26.98
2023-04-15T01:37:48.445Z,26.43
2023-04-15T01:40:17.719Z,26.79
2023-04-15T01:42:50.674Z,26.40
2023-04-15T01:45:18.883Z,26.81
2023-04-15T01:47:47.157Z,26.99
2023-04-15T01:50:15.513Z,26.92
2023-04-15T01:52:43.794Z,26.55
2023-04-15T01:55:13.419Z,26.73
2023-04-15T01:57:46.721Z,26.99
2023-04-15T02:00:15.130Z,26.78
2023-04-15T02:02:43.768Z,27.68
2023-04-15T02:05:12.156Z,26.79
2023-04-15T02:07:40.360Z,26.72
2023-04-15T02:10:10.334Z,27.14
2023-04-15T02:12:38.463Z,26.57
2023-04-15T02:15:07.983Z,27.67
2023-04-15T02:17:37.670Z,26.77
2023-04-15T02:20:06.860Z,27.29
2023-04-15T02:22:35.346Z,27.01
2023-04-15T02:25:03.703Z,26.96
2023-04-15T02:27:33.613Z,27.47
2023-04-15T02:30:02.008Z,27.29
2023-04-15T02:32:30.224Z,27.21
2023-04-15T02:35:02.958Z,27.35
2023-04-15T02:37:32.153Z,27.68
2023-04-15T02:40:01.474Z,27.55
2023-04-15T02:42:31.996Z,27.12
2023-04-15T02:45:02.019Z,26.96
2023-04-15T02:47:35.341Z,27.01
2023-04-15T02:50:12.831Z,27.55
2023-04-15T02:52:43.262Z,27.84
2023-04-15T02:55:11.862Z,27.51
2023-04-15T02:57:41.326Z,27.57
2023-04-15T03:00:12.101Z,27.50
2023-04-15T03:02:47.591Z,26.89
2023-04-15T03:05:16.020Z,27.30
2023-04-15T03:07:50.423Z,27.05
2023-04-15T03:10:19.264Z,28.12
2023-04-15T03:12:48.611Z,27.31
2023-04-15T03:15:19.813Z,27.07
2023-04-15T03:17:51.345Z,26.95
2023-04-15T03:20:19.929Z,27.04
2023-04-15T03:22:49.470Z,27.60
2023-04-15T03:25:19.900Z,27.22
2023-04-15T03:27:50.511Z,27.25
2023-04-15T03:30:19.294Z,27.06
2023-04-15T03:32:47.799Z,27.32
2023-04-15T03:35:16.536Z,27.36
2023-04-15T03:37:44.830Z,27.34
2023-04-15T03:40:13.235Z,27.06
2023-04-15T03:42:41.635Z,26.80
2023-04-15T03:45:10.282Z,26.67
2023-04-15T03:47:38.532Z,26.79
2023-04-15T03:50:07.517Z,26.68
2023-04-15T03:52:35.914Z,27.15
2023-04-15T03:55:04.326Z,26.91
2023-04-15T03:57:32.573Z,26.76
2023-04-15T04:00:01.074Z,26.73
2023-04-15T04:02:29.388Z,26.34
2023-04-15T04:04:57.591Z,26.00
2023-04-15T04:07:25.679Z,26.60
2023-04-15T04:09:53.903Z,26.19
2023-04-15T04:12:21.976Z,26.82
2023-04-15T04:14:50.159Z,26.40
2023-04-15T04:17:18.448Z,26.17
2023-04-15T04:19:46.781Z,26.29
2023-04-15T04:22:14.958Z,25.75
2023-04-15T04:24:43.126Z,25.55
2023-04-15T04:27:11.500Z,25.54
2023-04-15T04:29:39.615Z,25.48
2023-04-15T04:32:07.884Z,24.99
2023-04-15T04:34:36.259Z,25.09
2023-04-15T04:37:04.346Z,25.32
2023-04-15T04:39:32.937Z,25.31
2023-04-15T04:42:01.529Z,24.74
2023-04-15T04:44:29.723Z,24.14
2023-04-15T04:46:57.821Z,23.28
2023-04-15T04:49:26.299Z,22.33
2023-04-15T04:51:54.731Z,21.91
2023-04-15T04:54:23.766Z,21.72
2023-04-15T04:56:51.863Z,21.00
2023-04-15T04:59:20.039Z,21.51
2023-04-15T05:01:48.265Z,20.89
2023-04-15T05:04:16.622Z,20.89
2023-04-15T05:06:44.908Z,20.91
2023-04-15T05:09:13.048Z,21.24
2023-04-15T05:11:41.296Z,21.11
2023-04-15T05:14:09.465Z,20.51
2023-04-15T05:16:37.669Z,20.73
2023-04-15T05:19:06.087Z,20.45
2023-04-15T05:21:34.270Z,20.43
2023-04-15T05:24:02.404Z,20.15
2023-04-15T05:26:30.604Z,19.25
2023-04-15T05:28:58.797Z,19.09
2023-04-15T05:31:27.302Z,18.52
2023-04-15T05:33:55.573Z,18.04
2023-04-15T05:36:23.760Z,17.89
2023-04-15T05:38:51.927Z,17.50
2023-04-15T05:41:20.102Z,17.07
2023-04-15T05:43:48.196Z,16.54
2023-04-15T05:46:16.619Z,16.43
2023-04-15T05:48:44.874Z,16.15
2023-04-15T05:51:13.044Z,16.24
2023-04-15T05:53:41.833Z,15.88
2023-04-15T05:56:10.219Z,15.35
2023-04-15T05:58:38.445Z,14.84
2023-04-15T06:01:14.208Z,15.51
2023-04-15T06:03:48.845Z,15.55
2023-04-15T06:06:17.301Z,15.78
2023-04-15T06:08:45.434Z,14.61
2023-04-15T06:11:13.602Z,15.07
2023-04-15T06:13:41.734Z,15.07
2023-04-15T06:16:09.976Z,14.61
2023-04-15T06:18:47.061Z,14.33
2023-04-15T06:21:16.480Z,14.37
2023-04-15T06:23:44.876Z,14.28
2023-04-15T06:26:12.984Z,13.78
2023-04-15T06:28:41.338Z,14.12
2023-04-15T06:31:09.758Z,13.84
2023-04-15T06:33:38.085Z,13.55
2023-04-15T06:36:06.562Z,12.87
2023-04-15T06:38:34.769Z,12.47
2023-04-15T06:41:03.878Z,12.96
2023-04-15T06:43:32.316Z,12.96
2023-04-15T06:46:00.612Z,12.63
2023-04-15T06:48:28.750Z,12.60
2023-04-15T06:50:58.490Z,12.87
2023-04-15T06:53:29.561Z,12.36
2023-04-15T06:55:57.670Z,11.95
2023-04-15T06:58:25.958Z,11.78
2023-04-15T07:00:54.184Z,11.32
2023-04-15T07:03:22.630Z,11.48
2023-04-15T07:05:51.086Z,11.11
2023-04-15T07:08:20.736Z,11.03
2023-04-15T07:10:48.944Z,11.21
2023-04-15T07:13:17.541Z,11.49
2023-04-15T07:15:46.843Z,11.03
2023-04-15T07:18:15.465Z,11.11
2023-04-15T07:20:43.936Z,10.77
2023-04-15T07:23:12.121Z,10.77
2023-04-15T07:25:40.449Z,10.40
2023-04-15T07:28:08.623Z,10.45
2023-04-15T07:30:37.011Z,10.33
2023-04-15T07:33:05.887Z,9.93
2023-04-15T07:35:34.216Z,9.92
2023-04-15T07:38:02.853Z,10.10
2023-04-15T07:40:31.081Z,9.63
2023-04-15T07:42:59.292Z,9.83
2023-04-15T07:45:27.950Z,9.87
2023-04-15T07:47:56.994Z,10.00
2023-04-15T07:50:25.254Z,9.62
2023-04-15T07:52:53.412Z,9.36
2023-04-15T07:55:23.479Z,9.19
2023-04-15T07:57:51.794Z,9.22
2023-04-15T08:00:20.239Z,8.61
2023-04-15T08:02:48.620Z,8.61
2023-04-15T08:05:16.987Z,8.39
2023-04-15T08:07:45.699Z,8.83
2023-04-15T08:10:14.620Z,8.63
2023-04-15T08:12:42.958Z,8.80
2023-04-15T08:15:13.670Z,8.67
2023-04-15T08:17:41.815Z,8.63
2023-04-15T08:20:11.099Z,8.99
2023-04-15T08:22:39.990Z,8.71
2023-04-15T08:25:09.169Z,8.68
2023-04-15T08:27:37.841Z,9.14
2023-04-15T08:30:06.868Z,9.42
2023-04-15T08:32:35.182Z,9.31
2023-04-15T08:35:03.722Z,9.68
2023-04-15T08:37:32.163Z,9.68
2023-04-15T08:40:00.296Z,9.75
2023-04-15T08:42:35.529Z,9.82
2023-04-15T08:45:05.758Z,9.54
2023-04-15T08:47:35.896Z,9.52
2023-04-15T08:50:05.637Z,10.21
2023-04-15T08:52:33.862Z,9.84
2023-04-15T08:55:03.723Z,10.03
2023-04-15T08:57:32.358Z,9.98
2023-04-15T09:00:05.371Z,10.28
2023-04-15T09:02:34.492Z,10.24
2023-04-15T09:05:05.054Z,9.81
2023-04-15T09:07:35.896Z,10.17
2023-04-15T09:10:04.987Z,9.52
2023-04-15T09:12:36.322Z,9.65
2023-04-15T09:15:04.988Z,10.16
2023-04-15T09:17:33.870Z,10.09
2023-04-15T09:20:13.727Z,9.58
2023-04-15T09:22:43.868Z,10.04
2023-04-15T09:25:15.144Z,9.71
2023-04-15T09:28:09.475Z,9.86
2023-04-15T09:30:37.968Z,9.76
2023-04-15T09:33:08.605Z,10.01
2023-04-15T09:35:37.349Z,10.00
2023-04-15T09:38:07.645Z,9.78
2023-04-15T09:40:38.324Z,9.82
2023-04-15T09:43:08.512Z,10.00
2023-04-15T09:45:36.716Z,9.64
2023-04-15T09:48:22.130Z,10.14
2023-04-15T09:50:51.192Z,9.90
2023-04-15T09:53:24.242Z,9.18
2023-04-15T09:56:04.008Z,9.17
2023-04-15T09:58:35.379Z,9.21
2023-04-15T10:01:06.417Z,8.93
2023-04-15T10:03:37.004Z,9.36
2023-04-15T10:06:05.830Z,9.44
2023-04-15T10:08:46.537Z,8.83
2023-04-15T10:11:20.421Z,8.81
2023-04-15T10:13:50.793Z,9.04
2023-04-15T10:16:23.301Z,8.49
2023-04-15T10:18:57.395Z,8.60
2023-04-15T10:21:25.624Z,8.29
2023-04-15T10:23:53.909Z,8.01
2023-04-15T10:26:22.568Z,8.13
2023-04-15T10:28:52.472Z,7.85
2023-04-15T10:31:21.274Z,7.94
2023-04-15T10:33:50.882Z,8.02
2023-04-15T10:36:20.149Z,7.62
2023-04-15T10:38:56.032Z,7.42
2023-04-15T10:41:34.609Z,7.61
2023-04-15T10:44:04.992Z,7.21
2023-04-15T10:46:46.798Z,7.36
2023-04-15T10:49:17.422Z,7.14
2023-04-15T10:51:47.720Z,6.72
2023-04-15T10:54:30.862Z,7.34
2023-04-15T10:57:02.803Z,7.84
2023-04-15T10:59:58.336Z,8.71
2023-04-15T11:02:54.533Z,7.63
2023-04-15T11:05:43.159Z,7.82
2023-04-15T11:08:12.916Z,7.50
2023-04-15T11:10:41.120Z,8.07
2023-04-15T11:13:12.009Z,8.78
2023-04-15T11:15:48.122Z,7.95
2023-04-15T11:18:17.618Z,8.66
2023-04-15T11:20:48.344Z,8.06
2023-04-15T11:23:19.245Z,8.51
2023-04-15T11:25:48.594Z,7.87
2023-04-15T11:28:17.045Z,8.19
2023-04-15T11:30:45.324Z,8.18
2023-04-15T11:33:14.071Z,8.70
2023-04-15T11:35:42.951Z,8.97
2023-04-15T11:38:15.650Z,9.40
2023-04-15T11:40:47.036Z,9.24
2023-04-15T11:43:16.280Z,9.39
2023-04-15T11:45:52.887Z,9.79
2023-04-15T11:48:32.954Z,9.19
2023-04-15T11:51:04.376Z,9.56
2023-04-15T11:53:49.794Z,9.41
2023-04-15T11:56:26.169Z,9.39
2023-04-15T11:58:58.893Z,10.14
2023-04-15T12:01:35.288Z,10.32
2023-04-15T12:04:04.628Z,10.40
2023-04-15T12:06:37.022Z,11.08
2023-04-15T12:09:07.080Z,10.70
2023-04-15T12:11:38.601Z,10.78
2023-04-15T12:14:16.399Z,11.49
2023-04-15T12:16:49.824Z,11.22
2023-04-15T12:19:22.806Z,11.75
2023-04-15T12:21:50.089Z,11.30
2023-04-15T12:24:21.883Z,11.64
2023-04-15T12:26:57.336Z,11.57
2023-04-15T12:29:29.277Z,11.74
2023-04-15T12:31:58.510Z,11.69
2023-04-15T12:34:31.818Z,12.88
2023-04-15T12:37:00.900Z,12.76
2023-04-15T12:39:30.798Z,12.90
2023-04-15T12:41:59.405Z,12.83
2023-04-15T12:44:27.338Z,12.33
2023-04-15T12:46:54.840Z,12.60
2023-04-15T12:49:23.436Z,12.63
2023-04-15T12:51:52.786Z,12.98
2023-04-15T12:54:20.280Z,13.11
2023-04-15T12:56:48.583Z,12.92
2023-04-15T12:59:16.285Z,13.22
2023-04-15T13:01:43.752Z,12.89
2023-04-15T13:04:11.074Z,13.05
2023-04-15T13:06:38.651Z,13.11
2023-04-15T13:09:06.208Z,12.92
2023-04-15T13:11:34.064Z,13.39
2023-04-15T13:14:02.479Z,13.54
2023-04-15T13:16:29.859Z,13.21
2023-04-15T13:18:56.935Z,14.19
2023-04-15T13:21:24.012Z,14.20
2023-04-15T13:23:51.366Z,13.64
2023-04-15T13:26:19.179Z,14.24
2023-04-15T13:28:46.569Z,13.83
2023-04-15T13:31:13.872Z,14.01
2023-04-15T13:33:41.138Z,14.19
2023-04-15T13:36:08.695Z,14.50
2023-04-15T13:38:36.375Z,14.41
2023-04-15T13:41:03.942Z,13.98
2023-04-15T13:43:31.889Z,14.89
2023-04-15T13:45:58.941Z,14.61
2023-04-15T13:48:26.042Z,14.58
2023-04-15T13:50:53.021Z,14.63
2023-04-15T13:53:19.950Z,14.95
2023-04-15T13:55:46.996Z,14.63
2023-04-15T13:58:13.892Z,14.81
2023-04-15T14:00:41.137Z,15.12
2023-04-15T14:03:08.241Z,14.96
2023-04-15T14:05:35.585Z,15.12
2023-04-15T14:08:02.807Z,14.91
2023-04-15T14:10:29.781Z,14.75
2023-04-15T14:12:56.968Z,14.99
2023-04-15T14:15:23.970Z,14.77
2023-04-15T14:17:51.244Z,14.78
2023-04-15T14:20:18.404Z,14.76
2023-04-15T14:22:45.281Z,15.31
2023-04-15T14:25:17.504Z,15.25
2023-04-15T14:27:56.702Z,15.43
2023-04-15T14:30:28.954Z,15.42
2023-04-15T14:32:58.931Z,15.54
2023-04-15T14:35:26.871Z,15.36
2023-04-15T14:37:54.540Z,15.71
2023-04-15T14:40:22.205Z,15.49
2023-04-15T14:42:49.382Z,15.09
2023-04-15T14:45:16.707Z,15.51
2023-04-15T14:47:44.238Z,15.79
2023-04-15T14:50:11.282Z,15.92
2023-04-15T14:52:41.330Z,15.75
2023-04-15T14:55:12.957Z,16.85
2023-04-15T14:57:41.992Z,16.42
2023-04-15T15:00:13.797Z,16.36
2023-04-15T15:02:43.845Z,16.46
2023-04-15T15:05:12.148Z,16.74
2023-04-15T15:07:41.062Z,16.23
2023-04-15T15:10:08.666Z,16.28
2023-04-15T15:12:36.064Z,16.69
2023-04-15T15:15:12.243Z,16.35
2023-04-15T15:17:46.776Z,16.52
2023-04-15T15:20:14.007Z,16.72
2023-04-15T15:22:41.081Z,16.89
2023-04-15T15:25:08.157Z,16.55
2023-04-15T15:27:37.714Z,17.27
2023-04-15T15:30:06.966Z,16.77
2023-04-15T15:32:34.146Z,16.84
2023-04-15T15:35:01.593Z,17.11
2023-04-15T15:37:31.632Z,16.99
2023-04-15T15:39:59.206Z,17.74
2023-04-15T15:42:26.600Z,17.06
2023-04-15T15:44:53.586Z,16.93
2023-04-15T15:47:22.491Z,17.84
2023-04-15T15:49:49.757Z,17.91
2023-04-15T15:52:16.841Z,17.52
2023-04-15T15:54:43.856Z,18.47
2023-04-15T15:57:11.378Z,18.85
2023-04-15T15:59:43.729Z,18.50
2023-04-15T16:02:12.382Z,19.05
2023-04-15T16:04:40.681Z,19.23
2023-04-15T16:07:07.773Z,18.54
2023-04-15T16:09:34.751Z,18.64
2023-04-15T16:12:03.409Z,19.72
2023-04-15T16:14:30.488Z,19.08
2023-04-15T16:16:57.700Z,19.83
2023-04-15T16:19:24.814Z,19.13
2023-04-15T16:21:51.897Z,19.67
2023-04-15T16:24:18.824Z,19.54
2023-04-15T16:26:46.061Z,19.51
2023-04-15T16:29:13.084Z,19.49
2023-04-15T16:31:41.590Z,19.46
2023-04-15T16:34:08.804Z,19.18
2023-04-15T16:36:36.306Z,19.24
2023-04-15T16:39:04.170Z,19.39
2023-04-15T16:41:35.274Z,19.72
2023-04-15T16:44:03.404Z,20.11
2023-04-15T16:46:31.143Z,19.88
2023-04-15T16:48:58.331Z,20.56
2023-04-15T16:51:25.949Z,20.64
2023-04-15T16:53:53.270Z,20.15
2023-04-15T16:56:21.719Z,20.77
2023-04-15T16:58:48.607Z,20.58
2023-04-15T17:01:15.976Z,20.70
2023-04-15T17:03:43.203Z,20.88
2023-04-15T17:06:10.443Z,21.01
2023-04-15T17:08:37.383Z,20.62
2023-04-15T17:11:04.578Z,21.11
2023-04-15T17:13:33.298Z,21.14
2023-04-15T17:16:24.253Z,21.15
2023-04-15T17:18:53.934Z,20.90
2023-04-15T17:21:28.187Z,21.21
2023-04-15T17:23:59.889Z,21.25
2023-04-15T17:26:38.279Z,21.23
2023-04-15T17:29:06.942Z,21.57
2023-04-15T17:31:41.875Z,21.34
2023-04-15T17:34:49.496Z,21.63
2023-04-15T17:37:36.157Z,21.61
2023-04-15T17:40:23.050Z,22.04
2023-04-15T17:43:10.565Z,21.72
2023-04-15T17:45:58.612Z,21.52
2023-04-15T17:48:47.028Z,21.42
2023-04-15T17:51:33.895Z,22.00
2023-04-15T17:54:26.718Z,22.38
2023-04-15T17:57:13.943Z,22.51
2023-04-15T18:00:01.226Z,22.62
2023-04-15T18:02:49.053Z,22.77
2023-04-15T18:05:36.413Z,23.04
2023-04-15T18:08:23.526Z,22.94
2023-04-15T18:11:12.171Z,23.12
2023-04-15T18:13:59.701Z,23.00
2023-04-15T18:16:46.678Z,23.10
2023-04-15T18:19:33.641Z,23.17
2023-04-15T18:22:01.245Z,23.23
2023-04-15T18:24:28.465Z,23.25
2023-04-15T18:26:56.612Z,23.52
2023-04-15T18:29:23.722Z,23.67
2023-04-15T18:31:50.770Z,23.41
2023-04-15T18:34:18.152Z,23.36
2023-04-15T18:36:45.317Z,23.39
2023-04-15T18:39:12.346Z,23.29
2023-04-15T18:41:39.248Z,22.96
2023-04-15T18:44:06.353Z,22.92
2023-04-15T18:46:33.780Z,22.95
2023-04-15T18:49:01.335Z,22.87
2023-04-15T18:51:28.279Z,22.78
2023-04-15T18:53:57.783Z,22.95
2023-04-15T18:56:24.784Z,22.93
2023-04-15T18:59:21.117Z,22.88
2023-04-15T19:01:39.520Z,23.32
2023-04-15T19:04:06.545Z,23.31
2023-04-15T19:06:33.923Z,23.59
2023-04-15T19:09:01.402Z,23.40
2023-04-15T19:11:29.012Z,23.79
2023-04-15T19:13:56.445Z,23.29
2023-04-15T19:16:23.437Z,23.77
2023-04-15T19:18:50.450Z,23.85
2023-04-15T19:21:25.594Z,23.99
2023-04-15T19:23:57.858Z,23.75
2023-04-15T19:26:25.056Z,23.34
2023-04-15T19:28:53.946Z,23.64
2023-04-15T19:31:21.118Z,23.61
2023-04-15T19:33:48.670Z,23.62
2023-04-15T19:36:16.079Z,23.84
2023-04-15T19:38:45.458Z,23.71
2023-04-15T19:41:12.464Z,23.76
2023-04-15T19:43:39.430Z,23.58
2023-04-15T19:46:07.192Z,24.06
2023-04-15T19:48:34.165Z,23.99
2023-04-15T19:51:01.385Z,24.20
2023-04-15T19:53:29.258Z,24.27
2023-04-15T19:56:15.338Z,24.80
2023-04-15T19:58:52.801Z,24.42
2023-04-15T20:01:20.829Z,24.81
2023-04-15T20:03:48.410Z,24.59
2023-04-15T20:06:28.314Z,24.75
2023-04-15T20:08:56.700Z,24.65
2023-04-15T20:12:05.708Z,25.17
2023-04-15T20:14:16.238Z,25.36
2023-04-15T20:16:43.746Z,25.04
2023-04-15T20:19:14.571Z,25.14
2023-04-15T20:21:42.423Z,25.40
2023-04-15T20:24:10.100Z,24.99
2023-04-15T20:26:37.089Z,24.86
2023-04-15T20:29:04.189Z,24.91
2023-04-15T20:31:31.331Z,24.92
2023-04-15T20:33:58.281Z,24.73
2023-04-15T20:36:25.244Z,24.49
2023-04-15T20:38:52.268Z,24.83
2023-04-15T20:41:19.150Z,24.15
2023-04-15T20:43:46.079Z,24.75
2023-04-15T20:46:20.515Z,24.58
2023-04-15T20:48:48.735Z,24.81
2023-04-15T20:51:15.732Z,24.83
2023-04-15T20:53:42.744Z,24.19
2023-04-15T20:56:09.876Z,24.93
2023-04-15T20:58:37.589Z,24.97
2023-04-15T21:01:04.859Z,24.94
2023-04-15T21:03:32.166Z,24.43
2023-04-15T21:05:59.387Z,24.69
2023-04-15T21:08:29.668Z,24.39
2023-04-15T21:10:57.489Z,24.67
2023-04-15T21:13:24.556Z,25.00
2023-04-15T21:15:54.084Z,24.34
2023-04-15T21:18:22.424Z,24.68
2023-04-15T21:21:02.359Z,25.20
2023-04-15T21:23:29.936Z,25.28
2023-04-15T21:25:57.491Z,25.33
2023-04-15T21:28:24.504Z,25.40
2023-04-15T21:30:51.549Z,25.25
2023-04-15T21:33:20.438Z,25.67
2023-04-15T21:35:47.553Z,24.80
2023-04-15T21:38:14.898Z,25.41
2023-04-15T21:40:42.121Z,26.00
2023-04-15T21:43:09.304Z,25.61
2023-04-15T21:45:39.483Z,25.75
2023-04-15T21:48:08.234Z,25.77
2023-04-15T21:50:39.304Z,26.46
2023-04-15T21:53:07.921Z,26.14
2023-04-15T21:55:35.768Z,26.12
2023-04-15T21:58:02.726Z,26.38
2023-04-15T22:00:30.146Z,26.14
2023-04-15T22:02:57.348Z,26.20
2023-04-15T22:05:26.139Z,26.53
2023-04-15T22:07:53.138Z,26.55
2023-04-15T22:10:20.957Z,26.59
2023-04-15T22:12:49.149Z,26.11
2023-04-15T22:15:16.991Z,26.17
2023-04-15T22:17:43.882Z,26.07
2023-04-15T22:20:11.166Z,25.83
2023-04-15T22:22:44.134Z,26.00
2023-04-15T22:25:12.502Z,25.59
2023-04-15T22:27:39.562Z,25.54
2023-04-15T22:30:07.237Z,25.94
2023-04-15T22:32:34.278Z,26.23
2023-04-15T22:35:01.927Z,25.76
2023-04-15T22:37:31.699Z,26.43
2023-04-15T22:39:59.480Z,25.67
2023-04-15T22:42:26.532Z,25.83
2023-04-15T22:44:53.906Z,26.26
2023-04-15T22:47:21.262Z,25.90
2023-04-15T22:49:48.443Z,26.14
2023-04-15T22:52:29.331Z,25.61
2023-04-15T22:54:57.907Z,25.73
2023-04-15T22:57:25.332Z,26.67
2023-04-15T22:59:52.219Z,26.07
2023-04-15T23:02:19.492Z,26.27
2023-04-15T23:04:46.603Z,26.07
2023-04-15T23:07:13.816Z,26.19
2023-04-15T23:09:40.737Z,25.77
2023-04-15T23:12:08.012Z,26.15
2023-04-15T23:14:35.136Z,26.03
2023-04-15T23:17:02.004Z,26.08
2023-04-15T23:19:29.173Z,26.23
2023-04-15T23:21:56.204Z,25.99
2023-04-15T23:24:23.276Z,26.22
2023-04-15T23:26:50.181Z,25.69
2023-04-15T23:29:17.368Z,25.66
2023-04-15T23:31:44.563Z,26.47
2023-04-15T23:34:11.864Z,26.45
2023-04-15T23:36:38.841Z,26.40
2023-04-15T23:39:05.811Z,26.26
2023-04-15T23:41:32.863Z,26.56
2023-04-15T23:44:00.171Z,26.27
2023-04-15T23:46:27.592Z,26.16
2023-04-15T23:48:54.648Z,26.75
2023-04-15T23:51:21.615Z,26.40
2023-04-15T23:53:49.410Z,26.43
2023-04-15T23:56:16.416Z,26.35
2023-04-15T23:58:43.336Z,26.70
